Time,TemperatureF,DewpointF,PressureIn,WindDirection,WindDirectionDegrees,WindSpeedMPH,WindSpeedGustMPH,Humidity,HourlyPrecipIn,Conditions,Clouds,dailyrainin,SolarRadiationWatts/m^2,SoftwareType,DateUTC
2013-09-10 00:01:00,62.0,61.0,-100.00,ENE,72,0.0,6.0,96,0.00,,,0.00,0.000000,,2013-09-10 07:01:00,
2013-09-10 00:42:00,64.0,60.0,-100.00,SW,215,1.0,8.0,88,0.00,,,0.00,0.000000,,2013-09-10 07:42:00,
2013-09-10 00:52:00,64.0,60.0,-100.00,SW,215,1.0,8.0,88,0.00,,,0.00,0.000000,,2013-09-10 07:52:00,
2013-09-10 01:02:00,64.0,60.0,-100.00,SW,215,1.0,8.0,88,0.00,,,0.00,0.000000,,2013-09-10 08:02:00,
2013-09-10 01:42:00,61.0,60.0,-100.00,SE,139,0.0,7.0,96,0.00,,,0.00,0.000000,,2013-09-10 08:42:00,
2013-09-10 01:52:00,61.0,60.0,-100.00,SE,139,0.0,7.0,96,0.00,,,0.00,0.000000,,2013-09-10 08:52:00,
2013-09-10 02:02:00,61.0,60.0,-100.00,SE,139,0.0,7.0,96,0.00,,,0.00,0.000000,,2013-09-10 09:02:00,
2013-09-10 02:43:00,64.0,61.0,-100.00,NE,50,4.0,9.0,90,0.00,,,0.00,0.000000,,2013-09-10 09:43:00,
2013-09-10 02:54:00,64.0,61.0,-100.00,NE,50,4.0,9.0,90,0.00,,,0.00,0.000000,,2013-09-10 09:54:00,
2013-09-10 03:03:00,64.0,61.0,-100.00,NE,50,4.0,9.0,90,0.00,,,0.00,0.000000,,2013-09-10 10:03:00,
2013-09-10 03:43:00,62.0,59.0,-100.00,NE,55,4.0,9.0,89,0.00,,,0.00,0.000000,,2013-09-10 10:43:00,
2013-09-10 03:53:00,62.0,59.0,-100.00,NE,55,4.0,9.0,89,0.00,,,0.00,0.000000,,2013-09-10 10:53:00,
2013-09-10 04:03:00,62.0,59.0,-100.00,NE,55,4.0,9.0,89,0.00,,,0.00,0.000000,,2013-09-10 11:03:00,
2013-09-10 06:52:00,60.0,57.0,-100.00,ENE,72,5.0,13.0,91,-99.99,,,0.00,0.000000,,2013-09-10 13:52:00,
2013-09-10 07:02:00,60.0,57.0,-100.00,ENE,72,5.0,13.0,91,-99.99,,,0.00,0.000000,,2013-09-10 14:02:00,
2013-09-10 07:42:00,61.0,59.0,-100.00,NE,52,6.0,12.0,93,0.00,,,0.00,1.000000,,2013-09-10 14:42:00,
2013-09-10 07:52:00,61.0,59.0,-100.00,NE,52,6.0,12.0,93,0.00,,,0.00,1.000000,,2013-09-10 14:52:00,
2013-09-10 08:02:00,61.0,59.0,-100.00,NE,52,6.0,12.0,93,0.00,,,0.00,1.000000,,2013-09-10 15:02:00,
2013-09-10 08:43:00,60.0,58.0,-100.00,ENE,78,5.0,11.0,92,0.00,,,0.00,24.000000,,2013-09-10 15:43:00,
2013-09-10 08:54:00,60.0,58.0,-100.00,ENE,78,5.0,11.0,92,0.00,,,0.00,24.000000,,2013-09-10 15:54:00,
2013-09-10 09:03:00,60.0,58.0,-100.00,ENE,78,5.0,11.0,92,0.00,,,0.00,24.000000,,2013-09-10 16:03:00,
2013-09-10 09:43:00,60.0,58.0,-100.00,ENE,78,6.0,10.0,93,0.00,,,0.00,70.000000,,2013-09-10 16:43:00,
2013-09-10 09:53:00,60.0,58.0,-100.00,ENE,78,6.0,10.0,93,0.00,,,0.00,70.000000,,2013-09-10 16:53:00,
2013-09-10 10:03:00,60.0,58.0,-100.00,ENE,78,6.0,10.0,93,0.00,,,0.00,70.000000,,2013-09-10 17:03:00,
2013-09-10 10:43:00,63.0,60.0,-100.00,ESE,122,5.0,13.0,90,0.00,,,0.00,149.000000,,2013-09-10 17:43:00,
2013-09-10 10:52:00,63.0,60.0,-100.00,ESE,122,5.0,13.0,90,0.00,,,0.00,149.000000,,2013-09-10 17:52:00,
2013-09-10 11:02:00,63.0,60.0,-100.00,ESE,122,5.0,13.0,90,0.00,,,0.00,149.000000,,2013-09-10 18:02:00,
2013-09-10 11:43:00,68.0,62.0,-100.00,SSE,155,4.0,13.0,81,0.00,,,0.00,367.000000,,2013-09-10 18:43:00,
2013-09-10 11:52:00,68.0,62.0,-100.00,SSE,155,4.0,13.0,81,0.00,,,0.00,367.000000,,2013-09-10 18:52:00,
2013-09-10 12:02:00,68.0,62.0,-100.00,SSE,155,4.0,13.0,81,0.00,,,0.00,367.000000,,2013-09-10 19:02:00,
2013-09-10 12:42:00,72.0,62.0,-100.00,East,97,4.0,11.0,71,0.00,,,-99.99,721.000000,,2013-09-10 19:42:00,
2013-09-10 12:52:00,72.0,62.0,-100.00,East,97,4.0,11.0,71,0.00,,,-99.99,721.000000,,2013-09-10 19:52:00,
2013-09-10 13:02:00,72.0,62.0,-100.00,East,97,4.0,11.0,71,0.00,,,-99.99,721.000000,,2013-09-10 20:02:00,
2013-09-10 13:52:00,78.0,64.0,-100.00,ENE,72,5.0,11.0,63,0.00,,,0.00,781.000000,,2013-09-10 20:52:00,
2013-09-10 14:02:00,78.0,64.0,-100.00,ENE,72,5.0,11.0,63,0.00,,,0.00,781.000000,,2013-09-10 21:02:00,
2013-09-10 14:54:00,82.0,64.0,-100.00,SSW,209,4.0,11.0,55,0.00,,,0.00,786.000000,,2013-09-10 21:54:00,
2013-09-10 15:04:00,82.0,64.0,-100.00,SSW,209,4.0,11.0,55,0.00,,,0.00,786.000000,,2013-09-10 22:04:00,
2013-09-10 15:42:00,85.0,65.0,-100.00,SSW,212,4.0,12.0,51,0.00,,,0.00,733.000000,,2013-09-10 22:42:00,
2013-09-10 15:54:00,85.0,65.0,-100.00,SSW,212,4.0,12.0,51,0.00,,,0.00,733.000000,,2013-09-10 22:54:00,
2013-09-10 16:03:00,85.0,65.0,-100.00,SSW,212,4.0,12.0,51,0.00,,,0.00,733.000000,,2013-09-10 23:03:00,
2013-09-10 16:42:00,84.0,63.0,-100.00,South,191,4.0,10.0,49,0.00,,,0.00,625.000000,,2013-09-10 23:42:00,
2013-09-10 16:53:00,84.0,63.0,-100.00,South,191,4.0,10.0,49,0.00,,,0.00,625.000000,,2013-09-10 23:53:00,
2013-09-10 17:02:00,84.0,63.0,-100.00,South,191,4.0,10.0,49,0.00,,,0.00,625.000000,,2013-09-11 00:02:00,
2013-09-10 17:42:00,85.0,64.0,-100.00,SSE,151,4.0,10.0,50,0.00,,,0.00,478.000000,,2013-09-11 00:42:00,
2013-09-10 17:52:00,85.0,64.0,-100.00,SSE,151,4.0,10.0,50,0.00,,,0.00,478.000000,,2013-09-11 00:52:00,
2013-09-10 18:01:00,85.0,64.0,-100.00,SSE,151,4.0,10.0,50,0.00,,,0.00,478.000000,,2013-09-11 01:01:00,
2013-09-10 18:42:00,82.0,63.0,-100.00,SSE,150,4.0,12.0,53,0.00,,,0.00,302.000000,,2013-09-11 01:42:00,
2013-09-10 18:53:00,82.0,63.0,-100.00,SSE,150,4.0,12.0,53,0.00,,,0.00,302.000000,,2013-09-11 01:53:00,
2013-09-10 19:02:00,82.0,63.0,-100.00,SSE,150,4.0,12.0,53,0.00,,,0.00,302.000000,,2013-09-11 02:02:00,
2013-09-10 19:43:00,77.0,62.0,-100.00,SW,219,2.0,10.0,60,0.00,,,0.00,37.000000,,2013-09-11 02:43:00,
2013-09-10 19:52:00,77.0,62.0,-100.00,SW,219,2.0,10.0,60,0.00,,,0.00,37.000000,,2013-09-11 02:52:00,
2013-09-10 20:02:00,77.0,62.0,-100.00,SW,219,2.0,10.0,60,0.00,,,0.00,37.000000,,2013-09-11 03:02:00,
2013-09-10 20:45:00,73.0,62.0,-100.00,SSW,213,0.0,4.0,69,0.00,,,0.00,4.000000,,2013-09-11 03:45:00,
2013-09-10 20:54:00,73.0,62.0,-100.00,SSW,213,0.0,4.0,69,0.00,,,0.00,4.000000,,2013-09-11 03:54:00,
2013-09-10 21:04:00,73.0,62.0,-100.00,SSW,213,0.0,4.0,69,0.00,,,0.00,4.000000,,2013-09-11 04:04:00,
2013-09-10 21:44:00,72.0,61.0,-100.00,East,96,2.0,6.0,68,0.00,,,0.00,0.000000,,2013-09-11 04:44:00,
2013-09-10 21:54:00,72.0,61.0,-100.00,East,96,2.0,6.0,68,0.00,,,0.00,0.000000,,2013-09-11 04:54:00,
2013-09-10 22:03:00,72.0,61.0,-100.00,East,96,2.0,6.0,68,0.00,,,0.00,0.000000,,2013-09-11 05:03:00,
2013-09-10 22:43:00,70.0,59.0,-100.00,NE,53,4.0,9.0,69,0.00,,,0.00,0.000000,,2013-09-11 05:43:00,
2013-09-10 22:53:00,70.0,59.0,-100.00,NE,53,4.0,9.0,69,0.00,,,0.00,0.000000,,2013-09-11 05:53:00,
2013-09-10 23:02:00,70.0,59.0,-100.00,NE,53,4.0,9.0,69,0.00,,,0.00,0.000000,,2013-09-11 06:02:00,
2013-09-10 23:42:00,69.0,60.0,-100.00,ESE,108,3.0,10.0,73,0.00,,,0.00,0.000000,,2013-09-11 06:42:00,
2013-09-10 23:52:00,69.0,60.0,-100.00,ESE,108,3.0,10.0,73,0.00,,,0.00,0.000000,,2013-09-11 06:52:00,